sensor_id;sensor_type;location;lat;lon;timestamp;temperature;humidity
41928;DHT22;27616;51.420;6.788;2023-07-29T00:01:42;18.80;99.90
41928;DHT22;27616;51.420;6.788;2023-07-29T00:04:08;18.70;99.90
41928;DHT22;27616;51.420;6.788;2023-07-29T00:06:36;18.70;99.90
41928;DHT22;27616;51.420;6.788;2023-07-29T00:09:03;18.70;99.90
41928;DHT22;27616;51.420;6.788;2023-07-29T00:11:28;18.70;99.90
41928;DHT22;27616;51.420;6.788;2023-07-29T00:13:54;18.70;99.90
41928;DHT22;27616;51.420;6.788;2023-07-29T00:16:20;18.70;99.90
41928;DHT22;27616;51.420;6.788;2023-07-29T00:18:48;18.60;99.90
41928;DHT22;27616;51.420;6.788;2023-07-29T00:21:13;18.60;99.90
41928;DHT22;27616;51.420;6.788;2023-07-29T00:23:39;18.50;99.90
41928;DHT22;27616;51.420;6.788;2023-07-29T00:26:05;18.50;99.90
41928;DHT22;27616;51.420;6.788;2023-07-29T00:28:30;18.50;99.90
41928;DHT22;27616;51.420;6.788;2023-07-29T00:30:56;18.50;99.90
41928;DHT22;27616;51.420;6.788;2023-07-29T00:33:22;18.50;99.90
41928;DHT22;27616;51.420;6.788;2023-07-29T00:35:47;18.40;99.90
41928;DHT22;27616;51.420;6.788;2023-07-29T00:38:13;18.40;99.90
41928;DHT22;27616;51.420;6.788;2023-07-29T00:40:39;18.40;99.90
41928;DHT22;27616;51.420;6.788;2023-07-29T00:43:05;18.40;99.90
41928;DHT22;27616;51.420;6.788;2023-07-29T00:45:32;18.50;99.90
41928;DHT22;27616;51.420;6.788;2023-07-29T00:47:59;18.50;99.90
41928;DHT22;27616;51.420;6.788;2023-07-29T00:50:26;18.50;99.90
41928;DHT22;27616;51.420;6.788;2023-07-29T00:52:54;18.50;99.90
41928;DHT22;27616;51.420;6.788;2023-07-29T00:55:22;18.50;99.90
41928;DHT22;27616;51.420;6.788;2023-07-29T00:57:48;18.60;99.90
41928;DHT22;27616;51.420;6.788;2023-07-29T01:00:17;18.70;99.90
41928;DHT22;27616;51.420;6.788;2023-07-29T01:02:43;18.70;99.90
41928;DHT22;27616;51.420;6.788;2023-07-29T01:05:12;18.70;99.90
41928;DHT22;27616;51.420;6.788;2023-07-29T01:07:57;18.70;99.90
41928;DHT22;27616;51.420;6.788;2023-07-29T01:10:50;18.70;99.90
41928;DHT22;27616;51.420;6.788;2023-07-29T01:16:20;18.60;99.90
41928;DHT22;27616;51.420;6.788;2023-07-29T01:18:47;18.60;99.90
41928;DHT22;27616;51.420;6.788;2023-07-29T01:21:17;18.70;99.90
41928;DHT22;27616;51.420;6.788;2023-07-29T01:23:44;18.70;99.90
41928;DHT22;27616;51.420;6.788;2023-07-29T01:26:10;18.60;99.90
41928;DHT22;27616;51.420;6.788;2023-07-29T01:28:35;18.60;99.90
41928;DHT22;27616;51.420;6.788;2023-07-29T01:31:13;18.60;99.90
41928;DHT22;27616;51.420;6.788;2023-07-29T01:33:57;18.70;99.90
41928;DHT22;27616;51.420;6.788;2023-07-29T01:36:26;18.60;99.90
41928;DHT22;27616;51.420;6.788;2023-07-29T01:38:53;18.70;99.90
41928;DHT22;27616;51.420;6.788;2023-07-29T01:41:20;18.80;99.90
41928;DHT22;27616;51.420;6.788;2023-07-29T01:43:47;18.80;99.90
41928;DHT22;27616;51.420;6.788;2023-07-29T01:46:14;18.80;99.90
41928;DHT22;27616;51.420;6.788;2023-07-29T01:48:40;18.80;99.90
41928;DHT22;27616;51.420;6.788;2023-07-29T01:51:06;18.80;99.90
41928;DHT22;27616;51.420;6.788;2023-07-29T01:53:33;18.80;99.90
41928;DHT22;27616;51.420;6.788;2023-07-29T01:55:58;18.80;99.90
41928;DHT22;27616;51.420;6.788;2023-07-29T01:58:24;18.70;99.90
41928;DHT22;27616;51.420;6.788;2023-07-29T02:00:50;18.70;99.90
41928;DHT22;27616;51.420;6.788;2023-07-29T02:03:16;18.70;99.90
41928;DHT22;27616;51.420;6.788;2023-07-29T02:05:42;18.70;99.90
41928;DHT22;27616;51.420;6.788;2023-07-29T02:08:10;18.70;99.90
41928;DHT22;27616;51.420;6.788;2023-07-29T02:10:36;18.70;99.90
41928;DHT22;27616;51.420;6.788;2023-07-29T02:13:02;18.70;99.90
41928;DHT22;27616;51.420;6.788;2023-07-29T02:15:28;18.80;99.90
41928;DHT22;27616;51.420;6.788;2023-07-29T02:17:54;18.80;99.90
41928;DHT22;27616;51.420;6.788;2023-07-29T02:20:19;18.90;99.90
41928;DHT22;27616;51.420;6.788;2023-07-29T02:22:45;18.80;99.90
41928;DHT22;27616;51.420;6.788;2023-07-29T02:25:11;18.80;99.90
41928;DHT22;27616;51.420;6.788;2023-07-29T02:27:36;18.80;99.90
41928;DHT22;27616;51.420;6.788;2023-07-29T02:30:02;18.70;99.90
41928;DHT22;27616;51.420;6.788;2023-07-29T02:32:28;18.70;99.90
41928;DHT22;27616;51.420;6.788;2023-07-29T02:34:54;18.70;99.90
41928;DHT22;27616;51.420;6.788;2023-07-29T02:37:20;18.70;99.90
41928;DHT22;27616;51.420;6.788;2023-07-29T02:39:46;18.70;99.90
41928;DHT22;27616;51.420;6.788;2023-07-29T02:42:11;18.60;99.90
41928;DHT22;27616;51.420;6.788;2023-07-29T02:44:37;18.70;99.90
41928;DHT22;27616;51.420;6.788;2023-07-29T02:47:03;18.80;99.90
41928;DHT22;27616;51.420;6.788;2023-07-29T02:49:29;18.70;99.90
41928;DHT22;27616;51.420;6.788;2023-07-29T02:51:54;18.70;99.90
41928;DHT22;27616;51.420;6.788;2023-07-29T02:54:20;18.80;99.90
41928;DHT22;27616;51.420;6.788;2023-07-29T02:56:46;18.70;99.90
41928;DHT22;27616;51.420;6.788;2023-07-29T02:59:11;18.70;99.90
41928;DHT22;27616;51.420;6.788;2023-07-29T03:01:37;18.70;99.90
41928;DHT22;27616;51.420;6.788;2023-07-29T03:04:03;18.80;99.90
41928;DHT22;27616;51.420;6.788;2023-07-29T03:06:29;18.70;99.90
41928;DHT22;27616;51.420;6.788;2023-07-29T03:08:54;18.70;99.90
41928;DHT22;27616;51.420;6.788;2023-07-29T03:11:20;18.80;99.90
41928;DHT22;27616;51.420;6.788;2023-07-29T03:13:46;18.80;99.90
41928;DHT22;27616;51.420;6.788;2023-07-29T03:16:16;18.80;99.90
41928;DHT22;27616;51.420;6.788;2023-07-29T03:18:48;18.80;99.90
41928;DHT22;27616;51.420;6.788;2023-07-29T03:21:14;18.80;99.90
41928;DHT22;27616;51.420;6.788;2023-07-29T03:23:40;18.80;99.90
41928;DHT22;27616;51.420;6.788;2023-07-29T03:26:06;18.80;99.90
41928;DHT22;27616;51.420;6.788;2023-07-29T03:28:39;18.80;99.90
41928;DHT22;27616;51.420;6.788;2023-07-29T03:31:05;18.80;99.90
41928;DHT22;27616;51.420;6.788;2023-07-29T03:33:32;18.90;99.90
41928;DHT22;27616;51.420;6.788;2023-07-29T03:35:58;18.90;99.90
41928;DHT22;27616;51.420;6.788;2023-07-29T03:38:24;18.80;99.90
41928;DHT22;27616;51.420;6.788;2023-07-29T03:40:50;18.80;99.90
41928;DHT22;27616;51.420;6.788;2023-07-29T03:43:16;18.90;99.90
41928;DHT22;27616;51.420;6.788;2023-07-29T03:45:42;19.00;99.90
41928;DHT22;27616;51.420;6.788;2023-07-29T03:48:08;18.90;99.90
41928;DHT22;27616;51.420;6.788;2023-07-29T03:50:35;18.90;99.90
41928;DHT22;27616;51.420;6.788;2023-07-29T03:53:02;18.90;99.90
41928;DHT22;27616;51.420;6.788;2023-07-29T03:55:27;18.90;99.90
41928;DHT22;27616;51.420;6.788;2023-07-29T03:57:58;18.90;99.90
41928;DHT22;27616;51.420;6.788;2023-07-29T04:00:25;18.80;99.90
41928;DHT22;27616;51.420;6.788;2023-07-29T04:02:51;18.70;99.90
41928;DHT22;27616;51.420;6.788;2023-07-29T04:05:17;18.70;99.90
41928;DHT22;27616;51.420;6.788;2023-07-29T04:07:43;18.80;99.90
41928;DHT22;27616;51.420;6.788;2023-07-29T04:10:09;18.70;99.90
41928;DHT22;27616;51.420;6.788;2023-07-29T04:12:35;18.70;99.90
41928;DHT22;27616;51.420;6.788;2023-07-29T04:15:01;18.70;99.90
41928;DHT22;27616;51.420;6.788;2023-07-29T04:17:27;18.70;99.90
41928;DHT22;27616;51.420;6.788;2023-07-29T04:19:53;18.70;99.90
41928;DHT22;27616;51.420;6.788;2023-07-29T04:22:21;18.60;99.90
41928;DHT22;27616;51.420;6.788;2023-07-29T04:24:47;18.60;99.90
41928;DHT22;27616;51.420;6.788;2023-07-29T04:27:12;18.60;99.90
41928;DHT22;27616;51.420;6.788;2023-07-29T04:29:38;18.60;99.90
41928;DHT22;27616;51.420;6.788;2023-07-29T04:32:04;18.60;99.90
41928;DHT22;27616;51.420;6.788;2023-07-29T04:34:30;18.70;99.90
41928;DHT22;27616;51.420;6.788;2023-07-29T04:36:55;18.70;99.90
41928;DHT22;27616;51.420;6.788;2023-07-29T04:39:21;18.60;99.90
41928;DHT22;27616;51.420;6.788;2023-07-29T04:41:47;18.60;99.90
41928;DHT22;27616;51.420;6.788;2023-07-29T04:44:14;18.60;99.90
41928;DHT22;27616;51.420;6.788;2023-07-29T04:46:39;18.60;99.90
41928;DHT22;27616;51.420;6.788;2023-07-29T04:49:05;18.60;99.90
41928;DHT22;27616;51.420;6.788;2023-07-29T04:51:31;18.60;99.90
41928;DHT22;27616;51.420;6.788;2023-07-29T04:54:00;18.60;99.90
41928;DHT22;27616;51.420;6.788;2023-07-29T04:56:26;18.60;99.90
41928;DHT22;27616;51.420;6.788;2023-07-29T04:58:51;18.60;99.90
41928;DHT22;27616;51.420;6.788;2023-07-29T05:01:17;18.50;99.90
41928;DHT22;27616;51.420;6.788;2023-07-29T05:03:44;18.50;99.90
41928;DHT22;27616;51.420;6.788;2023-07-29T05:06:11;18.50;99.90
41928;DHT22;27616;51.420;6.788;2023-07-29T05:08:37;18.40;99.90
41928;DHT22;27616;51.420;6.788;2023-07-29T05:11:03;18.40;99.90
41928;DHT22;27616;51.420;6.788;2023-07-29T05:13:28;18.40;99.90
41928;DHT22;27616;51.420;6.788;2023-07-29T05:15:54;18.50;99.90
41928;DHT22;27616;51.420;6.788;2023-07-29T05:18:20;18.50;99.90
41928;DHT22;27616;51.420;6.788;2023-07-29T05:20:47;18.50;99.90
41928;DHT22;27616;51.420;6.788;2023-07-29T05:23:13;18.50;99.90
41928;DHT22;27616;51.420;6.788;2023-07-29T05:25:39;18.50;99.90
41928;DHT22;27616;51.420;6.788;2023-07-29T05:28:04;18.60;99.90
41928;DHT22;27616;51.420;6.788;2023-07-29T05:30:31;18.60;99.90
41928;DHT22;27616;51.420;6.788;2023-07-29T05:32:59;18.60;99.90
41928;DHT22;27616;51.420;6.788;2023-07-29T05:35:25;18.50;99.90
41928;DHT22;27616;51.420;6.788;2023-07-29T05:37:51;18.60;99.90
41928;DHT22;27616;51.420;6.788;2023-07-29T05:40:17;18.50;99.90
41928;DHT22;27616;51.420;6.788;2023-07-29T05:42:43;18.50;99.90
41928;DHT22;27616;51.420;6.788;2023-07-29T05:45:10;18.50;99.90
41928;DHT22;27616;51.420;6.788;2023-07-29T05:47:37;18.40;99.90
41928;DHT22;27616;51.420;6.788;2023-07-29T05:50:03;18.40;99.90
41928;DHT22;27616;51.420;6.788;2023-07-29T05:52:32;18.50;99.90
41928;DHT22;27616;51.420;6.788;2023-07-29T05:54:58;18.50;99.90
41928;DHT22;27616;51.420;6.788;2023-07-29T05:57:24;18.40;99.90
41928;DHT22;27616;51.420;6.788;2023-07-29T05:59:50;18.40;99.90
41928;DHT22;27616;51.420;6.788;2023-07-29T06:02:15;18.40;99.90
41928;DHT22;27616;51.420;6.788;2023-07-29T06:04:41;18.40;99.90
41928;DHT22;27616;51.420;6.788;2023-07-29T06:07:07;18.40;99.90
41928;DHT22;27616;51.420;6.788;2023-07-29T06:09:33;18.40;99.90
41928;DHT22;27616;51.420;6.788;2023-07-29T06:11:59;18.40;99.90
41928;DHT22;27616;51.420;6.788;2023-07-29T06:14:25;18.40;99.90
41928;DHT22;27616;51.420;6.788;2023-07-29T06:16:50;18.40;99.90
41928;DHT22;27616;51.420;6.788;2023-07-29T06:19:17;18.40;99.90
41928;DHT22;27616;51.420;6.788;2023-07-29T06:21:43;18.50;99.90
41928;DHT22;27616;51.420;6.788;2023-07-29T06:24:08;18.60;99.90
41928;DHT22;27616;51.420;6.788;2023-07-29T06:26:35;18.50;99.90
41928;DHT22;27616;51.420;6.788;2023-07-29T06:29:01;18.50;99.90
41928;DHT22;27616;51.420;6.788;2023-07-29T06:31:26;18.50;99.90
41928;DHT22;27616;51.420;6.788;2023-07-29T06:33:52;18.50;99.90
41928;DHT22;27616;51.420;6.788;2023-07-29T06:36:17;18.50;99.90
41928;DHT22;27616;51.420;6.788;2023-07-29T06:38:43;18.50;99.90
41928;DHT22;27616;51.420;6.788;2023-07-29T06:41:08;18.60;99.90
41928;DHT22;27616;51.420;6.788;2023-07-29T06:43:34;18.70;99.90
41928;DHT22;27616;51.420;6.788;2023-07-29T06:46:00;18.80;99.90
41928;DHT22;27616;51.420;6.788;2023-07-29T06:48:25;18.90;99.90
41928;DHT22;27616;51.420;6.788;2023-07-29T06:50:51;19.10;99.90
41928;DHT22;27616;51.420;6.788;2023-07-29T06:53:17;19.30;99.90
41928;DHT22;27616;51.420;6.788;2023-07-29T06:55:43;19.40;99.90
41928;DHT22;27616;51.420;6.788;2023-07-29T06:58:10;19.50;99.90
41928;DHT22;27616;51.420;6.788;2023-07-29T07:00:35;19.50;99.90
41928;DHT22;27616;51.420;6.788;2023-07-29T07:03:01;19.50;99.90
41928;DHT22;27616;51.420;6.788;2023-07-29T07:05:26;19.50;99.90
41928;DHT22;27616;51.420;6.788;2023-07-29T07:07:52;19.40;99.90
41928;DHT22;27616;51.420;6.788;2023-07-29T07:10:18;19.40;99.90
41928;DHT22;27616;51.420;6.788;2023-07-29T07:12:44;19.60;99.90
41928;DHT22;27616;51.420;6.788;2023-07-29T07:15:10;19.70;99.90
41928;DHT22;27616;51.420;6.788;2023-07-29T07:17:35;19.80;99.90
41928;DHT22;27616;51.420;6.788;2023-07-29T07:20:01;19.90;99.90
41928;DHT22;27616;51.420;6.788;2023-07-29T07:22:27;19.90;99.90
41928;DHT22;27616;51.420;6.788;2023-07-29T07:24:52;19.90;99.90
41928;DHT22;27616;51.420;6.788;2023-07-29T07:27:18;20.00;99.90
41928;DHT22;27616;51.420;6.788;2023-07-29T07:29:43;19.90;99.90
41928;DHT22;27616;51.420;6.788;2023-07-29T07:32:09;19.80;99.90
41928;DHT22;27616;51.420;6.788;2023-07-29T07:34:35;19.80;99.90
41928;DHT22;27616;51.420;6.788;2023-07-29T07:37:00;20.00;99.90
41928;DHT22;27616;51.420;6.788;2023-07-29T07:39:26;20.10;99.90
41928;DHT22;27616;51.420;6.788;2023-07-29T07:41:52;20.20;99.90
41928;DHT22;27616;51.420;6.788;2023-07-29T07:44:17;20.20;99.90
41928;DHT22;27616;51.420;6.788;2023-07-29T07:46:45;20.30;99.90
41928;DHT22;27616;51.420;6.788;2023-07-29T07:49:11;20.30;99.90
41928;DHT22;27616;51.420;6.788;2023-07-29T07:51:38;20.30;99.90
41928;DHT22;27616;51.420;6.788;2023-07-29T07:54:03;20.30;99.90
41928;DHT22;27616;51.420;6.788;2023-07-29T07:56:29;20.30;99.90
41928;DHT22;27616;51.420;6.788;2023-07-29T07:58:55;20.30;99.90
41928;DHT22;27616;51.420;6.788;2023-07-29T08:01:20;20.30;99.90
41928;DHT22;27616;51.420;6.788;2023-07-29T08:03:46;20.40;99.90
41928;DHT22;27616;51.420;6.788;2023-07-29T08:06:11;20.30;99.90
41928;DHT22;27616;51.420;6.788;2023-07-29T08:08:37;20.40;99.90
41928;DHT22;27616;51.420;6.788;2023-07-29T08:11:03;20.50;99.90
41928;DHT22;27616;51.420;6.788;2023-07-29T08:13:28;20.60;99.90
41928;DHT22;27616;51.420;6.788;2023-07-29T08:15:54;20.80;99.90
41928;DHT22;27616;51.420;6.788;2023-07-29T08:18:19;21.00;99.90
41928;DHT22;27616;51.420;6.788;2023-07-29T08:20:53;21.20;99.90
41928;DHT22;27616;51.420;6.788;2023-07-29T08:23:19;21.10;99.90
41928;DHT22;27616;51.420;6.788;2023-07-29T08:25:49;21.00;99.90
41928;DHT22;27616;51.420;6.788;2023-07-29T08:28:15;21.00;99.90
41928;DHT22;27616;51.420;6.788;2023-07-29T08:30:40;21.10;99.90
41928;DHT22;27616;51.420;6.788;2023-07-29T08:33:06;20.90;99.90
41928;DHT22;27616;51.420;6.788;2023-07-29T08:35:31;21.00;99.90
41928;DHT22;27616;51.420;6.788;2023-07-29T08:37:57;21.10;99.90
41928;DHT22;27616;51.420;6.788;2023-07-29T08:40:27;21.10;99.90
41928;DHT22;27616;51.420;6.788;2023-07-29T08:42:56;21.20;99.90
41928;DHT22;27616;51.420;6.788;2023-07-29T08:45:23;21.40;99.90
41928;DHT22;27616;51.420;6.788;2023-07-29T08:47:50;21.50;99.90
41928;DHT22;27616;51.420;6.788;2023-07-29T08:50:19;21.70;99.90
41928;DHT22;27616;51.420;6.788;2023-07-29T08:52:45;21.80;99.90
41928;DHT22;27616;51.420;6.788;2023-07-29T08:55:11;21.90;99.90
41928;DHT22;27616;51.420;6.788;2023-07-29T08:57:37;21.90;99.90
41928;DHT22;27616;51.420;6.788;2023-07-29T09:00:03;22.00;99.90
41928;DHT22;27616;51.420;6.788;2023-07-29T09:02:29;22.00;99.90
41928;DHT22;27616;51.420;6.788;2023-07-29T09:04:55;21.90;99.90
41928;DHT22;27616;51.420;6.788;2023-07-29T09:07:20;21.80;99.90
41928;DHT22;27616;51.420;6.788;2023-07-29T09:09:46;21.80;99.90
41928;DHT22;27616;51.420;6.788;2023-07-29T09:12:12;21.70;99.90
41928;DHT22;27616;51.420;6.788;2023-07-29T09:14:37;21.60;99.90
41928;DHT22;27616;51.420;6.788;2023-07-29T09:17:07;21.60;99.90
41928;DHT22;27616;51.420;6.788;2023-07-29T09:19:33;21.40;99.90
41928;DHT22;27616;51.420;6.788;2023-07-29T09:22:00;21.40;99.90
41928;DHT22;27616;51.420;6.788;2023-07-29T09:24:25;21.40;99.90
41928;DHT22;27616;51.420;6.788;2023-07-29T09:26:55;21.40;99.90
41928;DHT22;27616;51.420;6.788;2023-07-29T09:29:24;21.40;99.90
41928;DHT22;27616;51.420;6.788;2023-07-29T09:31:53;21.50;99.90
41928;DHT22;27616;51.420;6.788;2023-07-29T09:34:18;21.60;99.90
41928;DHT22;27616;51.420;6.788;2023-07-29T09:36:44;21.50;99.90
41928;DHT22;27616;51.420;6.788;2023-07-29T09:39:12;21.40;99.90
41928;DHT22;27616;51.420;6.788;2023-07-29T09:41:38;21.30;99.90
41928;DHT22;27616;51.420;6.788;2023-07-29T09:44:04;21.20;99.90
41928;DHT22;27616;51.420;6.788;2023-07-29T09:46:35;21.10;99.90
41928;DHT22;27616;51.420;6.788;2023-07-29T09:49:05;21.30;99.90
41928;DHT22;27616;51.420;6.788;2023-07-29T09:51:31;21.50;99.90
41928;DHT22;27616;51.420;6.788;2023-07-29T09:53:57;21.70;99.90
41928;DHT22;27616;51.420;6.788;2023-07-29T09:56:27;21.80;99.90
41928;DHT22;27616;51.420;6.788;2023-07-29T09:58:52;21.90;99.90
41928;DHT22;27616;51.420;6.788;2023-07-29T10:01:20;22.00;99.90
41928;DHT22;27616;51.420;6.788;2023-07-29T10:03:47;22.00;99.90
41928;DHT22;27616;51.420;6.788;2023-07-29T10:06:14;22.10;99.90
41928;DHT22;27616;51.420;6.788;2023-07-29T10:08:40;22.20;99.90
41928;DHT22;27616;51.420;6.788;2023-07-29T10:11:08;22.10;99.90
41928;DHT22;27616;51.420;6.788;2023-07-29T10:13:34;22.20;99.90
41928;DHT22;27616;51.420;6.788;2023-07-29T10:16:00;22.30;99.90
41928;DHT22;27616;51.420;6.788;2023-07-29T10:18:30;22.30;99.90
41928;DHT22;27616;51.420;6.788;2023-07-29T10:20:57;22.30;99.90
41928;DHT22;27616;51.420;6.788;2023-07-29T10:23:25;22.40;99.90
41928;DHT22;27616;51.420;6.788;2023-07-29T10:26:13;22.40;99.90
41928;DHT22;27616;51.420;6.788;2023-07-29T10:28:40;22.50;99.90
41928;DHT22;27616;51.420;6.788;2023-07-29T10:31:06;22.40;99.90
41928;DHT22;27616;51.420;6.788;2023-07-29T10:33:33;22.30;99.90
41928;DHT22;27616;51.420;6.788;2023-07-29T10:36:00;22.30;99.90
41928;DHT22;27616;51.420;6.788;2023-07-29T10:38:26;22.30;99.90
41928;DHT22;27616;51.420;6.788;2023-07-29T10:40:54;22.50;99.90
41928;DHT22;27616;51.420;6.788;2023-07-29T10:43:36;22.60;99.90
41928;DHT22;27616;51.420;6.788;2023-07-29T10:46:16;22.70;99.90
41928;DHT22;27616;51.420;6.788;2023-07-29T10:48:43;22.80;99.90
41928;DHT22;27616;51.420;6.788;2023-07-29T10:51:36;23.00;99.90
41928;DHT22;27616;51.420;6.788;2023-07-29T10:54:13;23.10;99.90
41928;DHT22;27616;51.420;6.788;2023-07-29T10:56:43;23.30;99.90
41928;DHT22;27616;51.420;6.788;2023-07-29T11:01:40;23.70;99.90
41928;DHT22;27616;51.420;6.788;2023-07-29T11:12:39;23.70;99.90
41928;DHT22;27616;51.420;6.788;2023-07-29T11:20:07;23.20;99.90
41928;DHT22;27616;51.420;6.788;2023-07-29T11:22:34;22.90;99.90
41928;DHT22;27616;51.420;6.788;2023-07-29T11:24:59;22.80;99.90
41928;DHT22;27616;51.420;6.788;2023-07-29T11:27:25;22.80;99.90
41928;DHT22;27616;51.420;6.788;2023-07-29T11:30:00;22.70;99.90
41928;DHT22;27616;51.420;6.788;2023-07-29T11:32:26;22.70;99.90
41928;DHT22;27616;51.420;6.788;2023-07-29T11:34:52;22.70;99.90
41928;DHT22;27616;51.420;6.788;2023-07-29T11:37:18;22.70;99.90
41928;DHT22;27616;51.420;6.788;2023-07-29T11:39:45;22.80;99.90
41928;DHT22;27616;51.420;6.788;2023-07-29T11:42:12;23.10;99.90
41928;DHT22;27616;51.420;6.788;2023-07-29T11:44:38;23.30;99.90
41928;DHT22;27616;51.420;6.788;2023-07-29T11:47:07;23.60;99.90
41928;DHT22;27616;51.420;6.788;2023-07-29T11:49:34;23.70;99.90
41928;DHT22;27616;51.420;6.788;2023-07-29T11:52:00;23.90;99.90
41928;DHT22;27616;51.420;6.788;2023-07-29T11:54:26;24.00;99.90
41928;DHT22;27616;51.420;6.788;2023-07-29T11:56:52;24.00;99.90
41928;DHT22;27616;51.420;6.788;2023-07-29T11:59:18;24.00;99.90
41928;DHT22;27616;51.420;6.788;2023-07-29T12:01:43;24.00;99.90
41928;DHT22;27616;51.420;6.788;2023-07-29T12:04:10;24.00;99.90
41928;DHT22;27616;51.420;6.788;2023-07-29T12:06:37;24.00;99.90
41928;DHT22;27616;51.420;6.788;2023-07-29T12:09:03;24.00;99.90
41928;DHT22;27616;51.420;6.788;2023-07-29T12:11:30;23.80;99.90
41928;DHT22;27616;51.420;6.788;2023-07-29T12:13:56;23.60;99.90
41928;DHT22;27616;51.420;6.788;2023-07-29T12:16:21;23.30;99.90
41928;DHT22;27616;51.420;6.788;2023-07-29T12:18:49;23.20;99.90
41928;DHT22;27616;51.420;6.788;2023-07-29T12:21:15;23.30;99.90
41928;DHT22;27616;51.420;6.788;2023-07-29T12:23:41;23.40;99.90
41928;DHT22;27616;51.420;6.788;2023-07-29T12:26:06;23.40;99.90
41928;DHT22;27616;51.420;6.788;2023-07-29T12:28:32;23.50;99.90
41928;DHT22;27616;51.420;6.788;2023-07-29T12:30:58;23.60;99.90
41928;DHT22;27616;51.420;6.788;2023-07-29T12:33:31;23.50;99.90
41928;DHT22;27616;51.420;6.788;2023-07-29T12:35:57;23.30;99.90
41928;DHT22;27616;51.420;6.788;2023-07-29T12:38:25;23.20;99.90
41928;DHT22;27616;51.420;6.788;2023-07-29T12:40:51;23.20;99.90
41928;DHT22;27616;51.420;6.788;2023-07-29T12:43:16;23.20;99.90
41928;DHT22;27616;51.420;6.788;2023-07-29T12:45:42;23.30;99.90
41928;DHT22;27616;51.420;6.788;2023-07-29T12:48:09;23.40;99.90
41928;DHT22;27616;51.420;6.788;2023-07-29T12:50:36;23.30;99.90
41928;DHT22;27616;51.420;6.788;2023-07-29T12:53:01;23.30;99.90
41928;DHT22;27616;51.420;6.788;2023-07-29T12:55:27;23.30;99.90
41928;DHT22;27616;51.420;6.788;2023-07-29T12:57:53;23.40;99.90
41928;DHT22;27616;51.420;6.788;2023-07-29T13:00:18;23.40;99.90
41928;DHT22;27616;51.420;6.788;2023-07-29T13:02:44;23.40;99.90
41928;DHT22;27616;51.420;6.788;2023-07-29T13:05:10;23.50;99.90
41928;DHT22;27616;51.420;6.788;2023-07-29T13:07:40;23.60;99.90
41928;DHT22;27616;51.420;6.788;2023-07-29T13:10:07;23.60;99.90
41928;DHT22;27616;51.420;6.788;2023-07-29T13:12:33;23.60;99.90
41928;DHT22;27616;51.420;6.788;2023-07-29T13:14:58;23.60;99.90
41928;DHT22;27616;51.420;6.788;2023-07-29T13:17:24;23.50;99.90
41928;DHT22;27616;51.420;6.788;2023-07-29T13:19:50;23.50;99.90
41928;DHT22;27616;51.420;6.788;2023-07-29T13:22:16;23.40;99.90
41928;DHT22;27616;51.420;6.788;2023-07-29T13:24:42;23.40;99.90
41928;DHT22;27616;51.420;6.788;2023-07-29T13:27:07;23.30;99.90
41928;DHT22;27616;51.420;6.788;2023-07-29T13:29:33;23.20;99.90
41928;DHT22;27616;51.420;6.788;2023-07-29T13:31:58;23.10;99.90
41928;DHT22;27616;51.420;6.788;2023-07-29T13:34:24;23.10;99.90
41928;DHT22;27616;51.420;6.788;2023-07-29T13:36:50;22.90;99.90
41928;DHT22;27616;51.420;6.788;2023-07-29T13:39:16;22.90;99.90
41928;DHT22;27616;51.420;6.788;2023-07-29T13:41:41;22.80;99.90
41928;DHT22;27616;51.420;6.788;2023-07-29T13:44:07;22.70;99.90
41928;DHT22;27616;51.420;6.788;2023-07-29T13:46:33;22.60;99.90
41928;DHT22;27616;51.420;6.788;2023-07-29T13:48:58;22.30;99.90
41928;DHT22;27616;51.420;6.788;2023-07-29T13:51:24;22.20;99.90
41928;DHT22;27616;51.420;6.788;2023-07-29T13:53:50;22.10;99.90
41928;DHT22;27616;51.420;6.788;2023-07-29T13:56:15;21.90;99.90
41928;DHT22;27616;51.420;6.788;2023-07-29T13:58:41;21.70;99.90
41928;DHT22;27616;51.420;6.788;2023-07-29T14:01:06;21.60;99.90
41928;DHT22;27616;51.420;6.788;2023-07-29T14:03:32;21.60;99.90
41928;DHT22;27616;51.420;6.788;2023-07-29T14:05:58;21.50;99.90
41928;DHT22;27616;51.420;6.788;2023-07-29T14:08:23;21.30;99.90
41928;DHT22;27616;51.420;6.788;2023-07-29T14:10:50;21.20;99.90
41928;DHT22;27616;51.420;6.788;2023-07-29T14:13:15;21.10;99.90
41928;DHT22;27616;51.420;6.788;2023-07-29T14:15:41;21.10;99.90
41928;DHT22;27616;51.420;6.788;2023-07-29T14:18:06;21.10;99.90
41928;DHT22;27616;51.420;6.788;2023-07-29T14:20:32;21.30;99.90
41928;DHT22;27616;51.420;6.788;2023-07-29T14:22:58;21.50;99.90
41928;DHT22;27616;51.420;6.788;2023-07-29T14:25:24;21.70;99.90
41928;DHT22;27616;51.420;6.788;2023-07-29T14:27:50;21.80;99.90
41928;DHT22;27616;51.420;6.788;2023-07-29T14:30:16;21.90;99.90
41928;DHT22;27616;51.420;6.788;2023-07-29T14:32:41;22.10;99.90
41928;DHT22;27616;51.420;6.788;2023-07-29T14:35:07;22.30;99.90
41928;DHT22;27616;51.420;6.788;2023-07-29T14:37:34;22.40;99.90
41928;DHT22;27616;51.420;6.788;2023-07-29T14:40:00;22.40;99.90
41928;DHT22;27616;51.420;6.788;2023-07-29T14:42:26;22.40;99.90
41928;DHT22;27616;51.420;6.788;2023-07-29T14:44:52;22.00;99.90
41928;DHT22;27616;51.420;6.788;2023-07-29T14:47:18;21.70;99.90
41928;DHT22;27616;51.420;6.788;2023-07-29T14:49:45;21.50;99.90
41928;DHT22;27616;51.420;6.788;2023-07-29T14:52:10;21.20;99.90
41928;DHT22;27616;51.420;6.788;2023-07-29T14:54:36;21.00;99.90
41928;DHT22;27616;51.420;6.788;2023-07-29T14:57:02;20.70;99.90
41928;DHT22;27616;51.420;6.788;2023-07-29T14:59:28;20.40;99.90
41928;DHT22;27616;51.420;6.788;2023-07-29T15:01:53;20.20;99.90
41928;DHT22;27616;51.420;6.788;2023-07-29T15:04:19;20.00;99.90
41928;DHT22;27616;51.420;6.788;2023-07-29T15:06:45;19.80;99.90
41928;DHT22;27616;51.420;6.788;2023-07-29T15:09:11;19.70;99.90
41928;DHT22;27616;51.420;6.788;2023-07-29T15:11:37;19.60;99.90
41928;DHT22;27616;51.420;6.788;2023-07-29T15:14:03;19.50;99.90
41928;DHT22;27616;51.420;6.788;2023-07-29T15:16:31;19.50;99.90
41928;DHT22;27616;51.420;6.788;2023-07-29T15:18:59;19.60;99.90
41928;DHT22;27616;51.420;6.788;2023-07-29T15:21:25;19.70;99.90
41928;DHT22;27616;51.420;6.788;2023-07-29T15:23:50;19.80;99.90
41928;DHT22;27616;51.420;6.788;2023-07-29T15:26:16;19.90;99.90
41928;DHT22;27616;51.420;6.788;2023-07-29T15:28:42;20.00;99.90
41928;DHT22;27616;51.420;6.788;2023-07-29T15:31:07;20.10;99.90
41928;DHT22;27616;51.420;6.788;2023-07-29T15:33:33;20.20;99.90
41928;DHT22;27616;51.420;6.788;2023-07-29T15:36:00;20.30;99.90
41928;DHT22;27616;51.420;6.788;2023-07-29T15:38:26;20.40;99.90
41928;DHT22;27616;51.420;6.788;2023-07-29T15:40:51;20.70;99.90
41928;DHT22;27616;51.420;6.788;2023-07-29T15:43:17;20.90;99.90
41928;DHT22;27616;51.420;6.788;2023-07-29T15:45:44;21.00;99.90